createdAt,value
2023-09-14T00:00:25.443Z,1.65
2023-09-14T00:02:52.254Z,1.73
2023-09-14T00:05:18.860Z,1.50
2023-09-14T00:07:45.442Z,1.30
2023-09-14T00:10:12.028Z,1.48
2023-09-14T00:12:38.723Z,1.30
2023-09-14T00:15:05.896Z,1.10
2023-09-14T00:17:32.552Z,1.58
2023-09-14T00:20:01.183Z,1.17
2023-09-14T00:22:27.816Z,1.48
2023-09-14T00:24:54.420Z,1.50
2023-09-14T00:27:21.012Z,1.50
2023-09-14T00:29:47.811Z,1.70
2023-09-14T00:32:14.507Z,0.98
2023-09-14T00:34:41.069Z,1.17
2023-09-14T00:37:07.680Z,1.20
2023-09-14T00:39:34.312Z,1.50
2023-09-14T00:42:00.909Z,0.90
2023-09-14T00:44:27.522Z,1.25
2023-09-14T00:46:54.886Z,1.50
2023-09-14T00:49:21.516Z,1.58
2023-09-14T00:51:48.389Z,1.58
2023-09-14T00:54:15.442Z,1.38
2023-09-14T00:56:42.733Z,1.13
2023-09-14T00:59:09.881Z,1.17
2023-09-14T01:01:37.264Z,1.25
2023-09-14T01:04:07.049Z,1.77
2023-09-14T01:06:33.994Z,1.40
2023-09-14T01:09:01.469Z,1.35
2023-09-14T01:11:28.130Z,1.38
2023-09-14T01:14:12.793Z,1.70
2023-09-14T01:16:56.623Z,1.73
2023-09-14T01:19:48.152Z,1.70
2023-09-14T01:22:43.273Z,1.90
2023-09-14T01:25:14.776Z,1.58
2023-09-14T01:27:41.444Z,1.17
2023-09-14T01:30:08.686Z,1.30
2023-09-14T01:32:35.543Z,1.52
2023-09-14T01:35:02.302Z,1.30
2023-09-14T01:37:29.528Z,1.40
2023-09-14T01:39:57.325Z,1.27
2023-09-14T01:42:25.077Z,1.48
2023-09-14T01:44:52.120Z,1.75
2023-09-14T01:47:19.913Z,1.60
2023-09-14T01:49:46.516Z,1.00
2023-09-14T01:52:13.251Z,1.77
2023-09-14T01:54:39.997Z,1.40
2023-09-14T01:57:07.039Z,1.20
2023-09-14T01:59:33.640Z,1.80
2023-09-14T02:02:01.914Z,1.40
2023-09-14T02:04:28.757Z,1.58
2023-09-14T02:06:55.406Z,1.27
2023-09-14T02:09:22.040Z,2.08
2023-09-14T02:11:48.605Z,1.05
2023-09-14T02:14:15.264Z,1.40
2023-09-14T02:16:41.917Z,1.42
2023-09-14T02:19:09.793Z,1.70
2023-09-14T02:21:36.495Z,1.70
2023-09-14T02:24:03.367Z,1.98
2023-09-14T02:26:30.031Z,1.45
2023-09-14T02:28:57.066Z,1.75
2023-09-14T02:31:24.041Z,1.40
2023-09-14T02:33:51.677Z,2.08
2023-09-14T02:36:18.672Z,1.25
2023-09-14T02:38:47.208Z,1.40
2023-09-14T02:41:14.320Z,3.95
2023-09-14T02:43:41.021Z,1.70
2023-09-14T02:46:07.713Z,1.30
2023-09-14T02:48:34.359Z,1.75
2023-09-14T02:51:00.999Z,1.55
2023-09-14T02:53:28.063Z,1.92
2023-09-14T02:55:54.701Z,1.48
2023-09-14T02:58:21.395Z,1.45
2023-09-14T03:00:48.328Z,2.03
2023-09-14T03:03:17.966Z,1.67
2023-09-14T03:05:44.553Z,1.75
2023-09-14T03:08:11.306Z,1.30
2023-09-14T03:10:38.211Z,1.58
2023-09-14T03:13:04.988Z,3.38
2023-09-14T03:15:31.981Z,2.05
2023-09-14T03:17:58.638Z,1.80
2023-09-14T03:20:25.305Z,1.20
2023-09-14T03:22:51.976Z,1.60
2023-09-14T03:25:19.053Z,1.67
2023-09-14T03:27:45.939Z,1.58
2023-09-14T03:30:13.376Z,1.30
2023-09-14T03:32:40.211Z,1.20
2023-09-14T03:35:07.016Z,1.55
2023-09-14T03:37:36.828Z,1.48
2023-09-14T03:40:06.248Z,1.65
2023-09-14T03:42:33.255Z,1.50
2023-09-14T03:45:00.011Z,1.65
2023-09-14T03:47:26.988Z,1.85
2023-09-14T03:49:53.679Z,1.55
2023-09-14T03:52:20.432Z,1.48
2023-09-14T03:54:47.131Z,1.40
2023-09-14T03:57:16.626Z,1.88
2023-09-14T03:59:44.737Z,2.03
2023-09-14T04:02:11.702Z,1.88
2023-09-14T04:04:45.620Z,1.63
2023-09-14T04:07:12.711Z,1.40
2023-09-14T04:09:39.664Z,1.80
2023-09-14T04:12:06.701Z,1.33
2023-09-14T04:14:33.804Z,1.58
2023-09-14T04:17:01.817Z,1.63
2023-09-14T04:19:30.584Z,1.67
2023-09-14T04:22:00.328Z,1.60
2023-09-14T04:24:27.667Z,2.03
2023-09-14T04:26:54.470Z,2.05
2023-09-14T04:29:21.094Z,1.98
2023-09-14T04:31:47.795Z,1.38
2023-09-14T04:34:14.514Z,1.77
2023-09-14T04:36:41.306Z,1.60
2023-09-14T04:39:08.461Z,2.10
2023-09-14T04:41:35.109Z,1.50
2023-09-14T04:44:01.710Z,1.27
2023-09-14T04:46:29.099Z,1.42
2023-09-14T04:48:56.212Z,1.60
2023-09-14T04:51:24.290Z,1.40
2023-09-14T04:53:50.951Z,1.70
2023-09-14T04:56:17.550Z,1.58
2023-09-14T04:58:44.427Z,1.60
2023-09-14T05:01:11.542Z,1.30
2023-09-14T05:03:40.573Z,1.63
2023-09-14T05:06:08.066Z,1.42
2023-09-14T05:08:34.839Z,1.80
2023-09-14T05:11:02.817Z,1.50
2023-09-14T05:13:30.515Z,1.40
2023-09-14T05:15:57.492Z,1.80
2023-09-14T05:18:26.252Z,1.80
2023-09-14T05:20:53.021Z,1.58
2023-09-14T05:23:19.664Z,1.73
2023-09-14T05:25:47.837Z,1.67
2023-09-14T05:28:14.991Z,1.73
2023-09-14T05:30:42.159Z,1.45
2023-09-14T05:33:10.753Z,1.60
2023-09-14T05:35:38.388Z,1.92
2023-09-14T05:38:05.216Z,1.45
2023-09-14T05:40:33.626Z,1.90
2023-09-14T05:43:00.772Z,1.70
2023-09-14T05:45:28.009Z,2.22
2023-09-14T05:47:56.526Z,1.75
2023-09-14T05:50:23.310Z,1.92
2023-09-14T05:52:49.994Z,2.17
2023-09-14T05:55:16.828Z,2.22
2023-09-14T05:57:43.608Z,1.88
2023-09-14T06:00:14.273Z,2.03
2023-09-14T06:02:46.414Z,2.05
2023-09-14T06:05:24.619Z,1.60
2023-09-14T06:07:56.317Z,1.70
2023-09-14T06:10:25.864Z,1.90
2023-09-14T06:12:52.748Z,1.85
2023-09-14T06:15:19.498Z,1.65
2023-09-14T06:17:47.952Z,1.92
2023-09-14T06:20:14.782Z,2.08
2023-09-14T06:22:41.386Z,2.50
2023-09-14T06:25:08.595Z,1.80
2023-09-14T06:27:35.286Z,2.17
2023-09-14T06:30:01.974Z,2.08
2023-09-14T06:32:28.663Z,2.00
2023-09-14T06:34:55.271Z,2.28
2023-09-14T06:37:21.899Z,2.55
2023-09-14T06:39:48.637Z,2.00
2023-09-14T06:42:15.270Z,2.47
2023-09-14T06:44:41.881Z,2.40
2023-09-14T06:47:08.518Z,1.92
2023-09-14T06:49:35.230Z,1.83
2023-09-14T06:52:01.880Z,2.05
2023-09-14T06:54:28.822Z,2.63
2023-09-14T06:56:55.413Z,2.13
2023-09-14T06:59:22.501Z,2.08
2023-09-14T07:01:49.120Z,2.10
2023-09-14T07:04:15.877Z,2.45
2023-09-14T07:06:43.192Z,2.80
2023-09-14T07:09:10.898Z,2.25
2023-09-14T07:11:37.550Z,2.10
2023-09-14T07:14:04.226Z,1.98
2023-09-14T07:16:30.927Z,2.10
2023-09-14T07:18:57.673Z,3.03
2023-09-14T07:21:24.457Z,2.42
2023-09-14T07:23:51.054Z,2.50
2023-09-14T07:26:17.810Z,1.80
2023-09-14T07:28:44.491Z,1.88
2023-09-14T07:31:11.240Z,1.80
2023-09-14T07:33:37.961Z,1.70
2023-09-14T07:36:04.700Z,2.10
2023-09-14T07:38:31.434Z,2.00
2023-09-14T07:40:58.455Z,2.08
2023-09-14T07:43:26.110Z,2.08
2023-09-14T07:45:55.379Z,2.30
2023-09-14T07:48:22.695Z,1.60
2023-09-14T07:50:49.275Z,1.40
2023-09-14T07:53:16.112Z,1.45
2023-09-14T07:55:42.749Z,1.65
2023-09-14T07:58:09.941Z,1.50
2023-09-14T08:00:37.034Z,1.98
2023-09-14T08:03:04.018Z,1.98
2023-09-14T08:05:31.058Z,1.55
2023-09-14T08:07:58.003Z,2.45
2023-09-14T08:10:24.723Z,1.40
2023-09-14T08:12:51.462Z,1.83
2023-09-14T08:15:18.198Z,1.98
2023-09-14T08:17:45.799Z,1.30
2023-09-14T08:20:13.027Z,1.48
2023-09-14T08:22:39.779Z,2.00
2023-09-14T08:25:08.018Z,1.50
2023-09-14T08:27:36.457Z,2.15
2023-09-14T08:30:04.005Z,1.90
2023-09-14T08:32:30.883Z,1.70
2023-09-14T08:34:59.570Z,1.13
2023-09-14T08:37:26.258Z,1.00
2023-09-14T08:39:53.078Z,1.63
2023-09-14T08:42:25.130Z,2.13
2023-09-14T08:44:54.158Z,1.63
2023-09-14T08:47:23.034Z,1.25
2023-09-14T08:49:50.539Z,1.30
2023-09-14T08:52:19.201Z,1.27
2023-09-14T08:54:45.952Z,1.17
2023-09-14T08:57:13.066Z,1.00
2023-09-14T08:59:40.603Z,0.80
2023-09-14T09:02:12.285Z,0.85
2023-09-14T09:04:39.601Z,1.00
2023-09-14T09:07:08.207Z,1.30
2023-09-14T09:09:35.427Z,1.20
2023-09-14T09:12:02.076Z,1.02
2023-09-14T09:14:32.257Z,1.15
2023-09-14T09:17:00.375Z,1.10
2023-09-14T09:19:28.376Z,0.93
2023-09-14T09:21:55.237Z,1.08
2023-09-14T09:24:28.493Z,0.70
2023-09-14T09:26:56.697Z,2.60
2023-09-14T09:29:24.096Z,1.30
2023-09-14T09:31:52.335Z,0.75
2023-09-14T09:34:32.455Z,1.30
2023-09-14T09:37:00.529Z,0.47
2023-09-14T09:39:27.348Z,0.68
2023-09-14T09:41:54.017Z,0.75
2023-09-14T09:44:20.834Z,1.52
2023-09-14T09:46:47.867Z,0.88
2023-09-14T09:49:19.681Z,1.00
2023-09-14T09:51:51.790Z,0.93
2023-09-14T09:54:25.492Z,0.95
2023-09-14T09:59:27.099Z,1.00
2023-09-14T10:01:54.738Z,0.90
2023-09-14T10:04:21.568Z,0.93
2023-09-14T10:06:53.055Z,1.30
2023-09-14T10:09:20.073Z,1.42
2023-09-14T10:11:50.095Z,1.00
2023-09-14T10:14:21.202Z,1.10
2023-09-14T10:16:49.919Z,0.85
2023-09-14T10:19:17.107Z,0.95
2023-09-14T10:21:47.289Z,0.70
2023-09-14T10:24:15.401Z,0.70
2023-09-14T10:26:42.212Z,0.90
2023-09-14T10:29:10.238Z,0.80
2023-09-14T10:31:37.910Z,0.77
2023-09-14T10:34:05.201Z,0.90
2023-09-14T10:36:33.739Z,0.70
2023-09-14T10:39:01.594Z,1.08
2023-09-14T10:41:31.368Z,0.70
2023-09-14T10:43:58.406Z,0.68
2023-09-14T10:46:29.788Z,1.10
2023-09-14T10:48:58.868Z,1.25
2023-09-14T10:51:27.280Z,0.80
2023-09-14T10:53:55.034Z,0.98
2023-09-14T10:56:23.660Z,0.82
2023-09-14T10:58:52.456Z,1.25
2023-09-14T11:01:27.805Z,0.73
2023-09-14T11:04:15.498Z,0.95
2023-09-14T11:06:53.920Z,0.80
2023-09-14T11:09:22.278Z,0.90
2023-09-14T11:11:52.354Z,0.60
2023-09-14T11:14:26.620Z,1.00
2023-09-14T11:16:57.146Z,0.65
2023-09-14T11:19:42.947Z,1.00
2023-09-14T11:22:18.796Z,1.00
2023-09-14T11:24:46.405Z,0.75
2023-09-14T11:27:22.222Z,0.85
2023-09-14T11:29:51.472Z,0.70
2023-09-14T11:32:26.351Z,0.80
2023-09-14T11:34:58.607Z,1.20
2023-09-14T11:37:34.598Z,1.00
2023-09-14T11:40:08.833Z,1.05
2023-09-14T11:43:16.779Z,1.33
2023-09-14T11:45:48.287Z,0.85
2023-09-14T11:50:48.840Z,1.15
2023-09-14T11:53:19.934Z,1.20
2023-09-14T11:55:48.643Z,0.88
2023-09-14T11:58:15.765Z,0.95
2023-09-14T12:00:46.423Z,1.20
2023-09-14T12:03:13.343Z,1.17
2023-09-14T12:05:40.143Z,0.70
2023-09-14T12:08:10.547Z,0.73
2023-09-14T12:10:37.480Z,0.85
2023-09-14T12:13:18.013Z,1.20
2023-09-14T12:15:46.150Z,0.80
2023-09-14T12:18:14.237Z,1.60
2023-09-14T12:20:42.534Z,0.90
2023-09-14T12:23:10.748Z,0.90
2023-09-14T12:25:40.040Z,0.93
2023-09-14T12:28:09.437Z,0.85
2023-09-14T12:30:37.704Z,1.23
2023-09-14T12:33:06.730Z,1.13
2023-09-14T12:35:33.785Z,0.93
2023-09-14T12:38:04.967Z,0.68
2023-09-14T12:40:39.404Z,0.63
2023-09-14T12:43:07.334Z,0.90
2023-09-14T12:45:35.442Z,0.80
2023-09-14T12:48:08.056Z,0.98
2023-09-14T12:50:38.309Z,0.90
2023-09-14T12:53:09.806Z,1.02
2023-09-14T12:55:54.852Z,0.88
2023-09-14T12:58:24.779Z,0.70
2023-09-14T13:00:53.823Z,0.73
2023-09-14T13:03:21.041Z,0.90
2023-09-14T13:05:48.552Z,0.80
2023-09-14T13:08:15.249Z,1.13
2023-09-14T13:10:41.871Z,0.85
2023-09-14T13:13:10.920Z,1.05
2023-09-14T13:15:40.411Z,1.10
2023-09-14T13:18:15.619Z,0.60
2023-09-14T13:20:50.017Z,1.33
2023-09-14T13:23:17.405Z,0.80
2023-09-14T13:25:44.015Z,0.80
2023-09-14T13:28:12.248Z,1.10
2023-09-14T13:30:39.967Z,1.08
2023-09-14T13:33:07.929Z,0.98
2023-09-14T13:35:34.726Z,0.95
2023-09-14T13:38:01.337Z,0.63
2023-09-14T13:40:29.653Z,0.60
2023-09-14T13:42:59.042Z,0.90
2023-09-14T13:45:28.083Z,0.85
2023-09-14T13:47:54.920Z,0.50
2023-09-14T13:50:22.645Z,0.80
2023-09-14T13:52:50.576Z,1.33
2023-09-14T13:55:17.319Z,0.80
2023-09-14T13:57:45.561Z,0.57
2023-09-14T14:00:19.621Z,0.68
2023-09-14T14:03:05.916Z,0.80
2023-09-14T14:05:43.055Z,0.82
2023-09-14T14:08:09.722Z,0.80
2023-09-14T14:10:36.730Z,0.80
2023-09-14T14:13:03.998Z,0.57
2023-09-14T14:15:31.769Z,1.02
2023-09-14T14:17:58.631Z,1.17
2023-09-14T14:20:25.344Z,0.52
2023-09-14T14:22:51.983Z,0.90
2023-09-14T14:25:18.725Z,0.60
2023-09-14T14:27:45.456Z,0.90
2023-09-14T14:30:13.359Z,0.57
2023-09-14T14:32:41.113Z,0.95
2023-09-14T14:35:09.790Z,0.82
2023-09-14T14:37:36.734Z,0.77
2023-09-14T14:40:05.102Z,0.93
2023-09-14T14:42:32.119Z,0.70
2023-09-14T14:44:59.195Z,0.70
2023-09-14T14:47:27.643Z,0.60
2023-09-14T14:49:54.849Z,0.50
2023-09-14T14:52:21.708Z,0.90
2023-09-14T14:54:48.346Z,0.60
2023-09-14T14:57:15.583Z,0.77
2023-09-14T14:59:42.227Z,0.90
2023-09-14T15:02:10.120Z,0.80
2023-09-14T15:04:36.738Z,1.15
2023-09-14T15:07:03.667Z,0.60
2023-09-14T15:09:30.428Z,0.70
2023-09-14T15:11:57.851Z,0.77
2023-09-14T15:14:24.556Z,0.88
2023-09-14T15:16:51.291Z,0.50
2023-09-14T15:19:18.958Z,0.65
2023-09-14T15:21:45.729Z,0.63
2023-09-14T15:24:12.869Z,0.73
2023-09-14T15:26:39.584Z,0.77
2023-09-14T15:29:06.147Z,0.47
2023-09-14T15:31:32.740Z,0.45
2023-09-14T15:34:00.586Z,0.70
2023-09-14T15:36:27.728Z,0.73
2023-09-14T15:38:55.095Z,0.88
2023-09-14T15:41:21.735Z,0.93
2023-09-14T15:43:48.736Z,0.65
2023-09-14T15:46:16.691Z,0.60
2023-09-14T15:48:43.394Z,0.93
2023-09-14T15:51:10.046Z,1.08
2023-09-14T15:53:37.714Z,1.00
2023-09-14T15:56:06.190Z,0.77
2023-09-14T15:58:33.263Z,1.00
2023-09-14T16:01:01.284Z,0.70
2023-09-14T16:03:28.328Z,0.77
2023-09-14T16:05:56.896Z,0.85
2023-09-14T16:08:23.570Z,0.90
2023-09-14T16:10:50.279Z,0.80
2023-09-14T16:13:16.879Z,1.02
2023-09-14T16:15:45.796Z,14.65
2023-09-14T16:18:12.649Z,10.00
2023-09-14T16:20:39.536Z,3.40
2023-09-14T16:23:06.181Z,1.38
2023-09-14T16:25:33.120Z,3.60
2023-09-14T16:27:59.692Z,8.05
2023-09-14T16:30:26.521Z,26.42
2023-09-14T16:32:53.738Z,40.10
2023-09-14T16:35:21.053Z,11.20
2023-09-14T16:37:48.599Z,2.08
2023-09-14T16:40:16.860Z,2.17
2023-09-14T16:42:43.872Z,3.90
2023-09-14T16:45:10.764Z,1.67
2023-09-14T16:47:37.950Z,1.80
2023-09-14T16:50:05.191Z,7.38
2023-09-14T16:52:32.124Z,35.08
2023-09-14T16:54:59.071Z,19.85
2023-09-14T16:57:27.123Z,5.07
2023-09-14T17:16:08.301Z,1.03
2023-09-14T17:18:35.060Z,0.73
2023-09-14T17:21:01.905Z,0.73
2023-09-14T17:23:28.623Z,1.10
2023-09-14T17:25:55.333Z,0.80
2023-09-14T17:28:23.161Z,0.98
2023-09-14T17:30:50.044Z,0.80
2023-09-14T17:33:16.918Z,0.77
2023-09-14T17:35:43.633Z,1.20
2023-09-14T17:38:10.334Z,0.68
2023-09-14T17:40:36.996Z,0.50
2023-09-14T17:43:04.497Z,1.08
2023-09-14T17:45:31.210Z,0.85
2023-09-14T17:47:58.019Z,1.00
2023-09-14T17:50:26.474Z,1.10
2023-09-14T17:52:53.259Z,0.70
2023-09-14T17:55:23.670Z,1.00
2023-09-14T18:00:59.694Z,1.25
2023-09-14T18:06:17.701Z,1.02
2023-09-14T18:08:46.008Z,0.73
2023-09-14T18:11:14.282Z,0.75
2023-09-14T18:13:45.728Z,0.77
2023-09-14T18:16:14.440Z,0.80
2023-09-14T18:18:41.973Z,1.05
2023-09-14T18:21:09.388Z,0.95
2023-09-14T18:23:36.340Z,1.05
2023-09-14T18:31:59.046Z,1.08
2023-09-14T18:35:02.429Z,1.00
2023-09-14T18:42:41.422Z,1.02
2023-09-14T18:45:12.640Z,0.82
2023-09-14T18:47:40.369Z,0.88
2023-09-14T18:50:12.470Z,1.02
2023-09-14T18:52:43.089Z,1.30
2023-09-14T18:55:13.085Z,1.02
2023-09-14T18:57:40.211Z,1.17
2023-09-14T19:00:07.893Z,0.90
2023-09-14T19:02:35.553Z,1.10
2023-09-14T19:07:57.946Z,1.13
2023-09-14T19:10:24.996Z,1.90
2023-09-14T19:13:01.091Z,0.90
2023-09-14T20:36:47.386Z,1.20
2023-09-14T20:49:39.175Z,1.10
2023-09-14T20:58:13.189Z,1.20
2023-09-14T21:03:56.023Z,1.10
2023-09-14T21:09:29.477Z,1.45
2023-09-14T21:12:01.776Z,1.48
2023-09-14T21:14:47.334Z,1.50
2023-09-14T21:17:26.597Z,1.60
2023-09-14T21:20:00.257Z,0.95
2023-09-14T21:25:34.227Z,1.00
2023-09-14T21:28:06.153Z,1.27
2023-09-14T21:30:43.966Z,1.10
2023-09-14T21:53:31.570Z,0.82
2023-09-14T22:08:39.959Z,0.93
2023-09-14T22:11:18.159Z,1.00
2023-09-14T22:26:09.025Z,1.25
2023-09-14T22:28:39.204Z,0.95
2023-09-14T22:31:17.875Z,1.77
2023-09-14T22:36:57.225Z,1.10
2023-09-14T22:42:20.157Z,1.60
2023-09-14T22:47:41.290Z,0.90
2023-09-14T22:50:17.931Z,1.08
2023-09-14T22:53:01.387Z,1.20
2023-09-14T22:55:37.773Z,1.02
2023-09-14T23:01:02.572Z,1.58
2023-09-14T23:09:38.716Z,1.20
2023-09-14T23:12:19.573Z,1.30
2023-09-14T23:14:56.077Z,0.87
2023-09-14T23:20:26.486Z,1.20
2023-09-14T23:23:10.001Z,1.10
2023-09-14T23:25:41.267Z,0.88
2023-09-14T23:28:14.351Z,1.13
2023-09-14T23:33:36.499Z,1.17
2023-09-14T23:39:37.669Z,0.98
2023-09-14T23:42:16.630Z,1.00
2023-09-14T23:47:56.953Z,1.13
2023-09-14T23:50:30.527Z,1.13
2023-09-14T23:59:00.285Z,0.85
